Time;durP1;ratioP1;P1;durP2;ratioP2;P2;SDS_P1;SDS_P2;PMS_P1;PMS_P2;Temp;Humidity;BMP_temperature;BMP_pressure;BME280_temperature;BME280_humidity;BME280_pressure;Samples;Min_cycle;Max_cycle;Signal;HPM_P1;HPM_P2
2022/01/06 03:45:23;;;;;;;13.30;2.90;;;5.20;86.10;;;;;;5782709;24;20026;31
2022/01/06 03:47:49;;;;;;;11.40;2.30;;;5.20;86.30;;;;;;4810341;29;20051;-81
2022/01/06 03:50:16;;;;;;;8.32;2.38;;;5.20;86.20;;;;;;4794959;29;20130;-82
2022/01/06 03:52:42;;;;;;;17.77;4.10;;;5.20;86.10;;;;;;4831061;29;20026;-81
2022/01/06 03:55:10;;;;;;;;;;;5.30;85.80;;;;;;4801877;29;20069;-82
2022/01/06 03:57:36;;;;;;;6.45;2.80;;;5.30;85.90;;;;;;4816885;29;19932;-82
2022/01/06 04:00:08;;;;;;;5.80;2.13;;;5.30;85.90;;;;;;4800703;29;20039;-82
2022/01/06 04:02:38;;;;;;;11.30;2.78;;;5.30;85.80;;;;;;4830591;29;20031;-81
2022/01/06 04:05:05;;;;;;;15.13;2.85;;;5.30;85.70;;;;;;4831198;29;20083;-80
2022/01/06 04:07:32;;;;;;;9.32;3.03;;;5.30;85.70;;;;;;4830762;29;20076;-82
2022/01/06 04:09:58;;;;;;;;;;;5.40;85.80;;;;;;4801122;29;20038;-82
2022/01/06 04:12:24;;;;;;;7.40;1.93;;;5.40;85.50;;;;;;4800621;29;19936;-81
2022/01/06 04:14:50;;;;;;;13.70;2.88;;;5.40;85.40;;;;;;4800559;29;20062;-82
2022/01/06 04:17:16;;;;;;;8.90;2.40;;;5.40;85.60;;;;;;4800436;29;20106;-82
2022/01/06 04:19:42;;;;;;;8.50;2.47;;;5.40;85.50;;;;;;4801741;29;20058;-81
2022/01/06 04:22:08;;;;;;;8.45;2.22;;;5.50;85.40;;;;;;4815755;29;20046;-82
2022/01/06 04:24:34;;;;;;;7.80;2.63;;;5.40;85.40;;;;;;4815584;29;20467;-82
2022/01/06 04:27:01;;;;;;;6.03;2.23;;;5.40;85.30;;;;;;4800515;29;20031;-82
2022/01/06 04:29:27;;;;;;;7.53;2.30;;;5.40;85.20;;;;;;4830624;29;20058;-81
2022/01/06 04:31:53;;;;;;;6.28;2.13;;;5.40;85.40;;;;;;4794904;30;20046;-82
2022/01/06 04:34:19;;;;;;;8.55;2.17;;;5.50;85.50;;;;;;4816157;29;20039;-82
2022/01/06 04:36:50;;;;;;;8.23;2.70;;;5.40;85.50;;;;;;4830580;29;20090;-81
2022/01/06 04:39:16;;;;;;;8.05;2.85;;;5.50;85.60;;;;;;4801009;29;20065;-81
2022/01/06 04:41:42;;;;;;;13.93;2.88;;;5.50;85.90;;;;;;4800099;29;20326;-81
2022/01/06 04:44:08;;;;;;;17.70;2.92;;;5.40;85.50;;;;;;4800025;29;20042;-81
2022/01/06 04:46:34;;;;;;;10.15;2.30;;;5.50;86.00;;;;;;4781673;30;20277;-81
2022/01/06 04:48:59;;;;;;;7.28;2.92;;;5.40;85.90;;;;;;4780531;30;20061;-82
2022/01/06 04:51:25;;;;;;;10.00;2.63;;;5.40;86.10;;;;;;4796932;30;20112;-81
2022/01/06 04:53:53;;;;;;;8.93;2.45;;;5.40;86.30;;;;;;4796942;29;20039;-82
2022/01/06 04:56:19;;;;;;;8.02;2.58;;;5.40;86.60;;;;;;4796872;30;20283;-82
2022/01/06 04:58:44;;;;;;;10.95;2.63;;;5.40;86.90;;;;;;4796913;29;20038;-80
2022/01/06 05:01:10;;;;;;;12.02;2.83;;;5.40;87.10;;;;;;4799630;29;20039;-82
2022/01/06 05:03:36;;;;;;;9.68;2.45;;;5.40;87.20;;;;;;4790139;30;20085;-82
2022/01/06 05:06:02;;;;;;;12.45;2.83;;;5.40;87.40;;;;;;4785094;29;20410;-82
2022/01/06 05:08:27;;;;;;;6.82;2.50;;;5.40;87.50;;;;;;4796119;30;20044;-82
2022/01/06 05:10:53;;;;;;;10.85;2.45;;;5.40;87.80;;;;;;4793907;30;20039;-82
2022/01/06 05:13:19;;;;;;;14.15;3.35;;;5.30;87.90;;;;;;4781832;30;20039;-82
2022/01/06 05:15:45;;;;;;;10.20;2.90;;;5.30;88.00;;;;;;4781811;30;20102;-81
2022/01/06 05:18:10;;;;;;;8.77;2.40;;;5.30;88.10;;;;;;4781866;29;20046;-82
2022/01/06 05:20:39;;;;;;;8.10;2.95;;;5.30;88.40;;;;;;4799863;29;20030;-82
2022/01/06 05:23:04;;;;;;;7.60;2.67;;;5.30;88.80;;;;;;4814735;29;20031;-81
2022/01/06 05:25:31;;;;;;;12.10;3.08;;;5.30;88.80;;;;;;4785482;30;20031;-82
2022/01/06 05:27:57;;;;;;;9.75;3.08;;;5.40;88.80;;;;;;4790030;29;20255;-82
2022/01/06 05:30:23;;;;;;;7.28;2.67;;;5.40;88.90;;;;;;4787921;29;20039;-82
2022/01/06 05:32:50;;;;;;;5.82;2.20;;;5.40;88.80;;;;;;4803212;29;20035;-81
2022/01/06 05:35:16;;;;;;;5.93;2.40;;;5.40;88.60;;;;;;4803324;29;20046;-81
2022/01/06 05:37:41;;;;;;;7.65;2.80;;;5.40;88.60;;;;;;4833415;29;20038;-81
2022/01/06 05:40:08;;;;;;;8.48;2.63;;;5.50;88.60;;;;;;4812048;29;20046;-81
2022/01/06 05:42:33;;;;;;;7.57;2.53;;;5.40;88.70;;;;;;4800200;29;20047;-81
2022/01/06 05:44:59;;;;;;;12.32;3.45;;;5.40;88.80;;;;;;4786592;29;20356;-81
2022/01/06 05:47:25;;;;;;;10.50;2.13;;;5.50;88.60;;;;;;4780795;29;20111;-81
2022/01/06 05:49:51;;;;;;;7.97;2.15;;;5.40;88.30;;;;;;4786206;29;20108;-82
2022/01/06 05:52:17;;;;;;;5.00;2.15;;;5.40;88.60;;;;;;4817818;29;20031;-82
2022/01/06 05:54:44;;;;;;;7.30;2.67;;;5.40;88.70;;;;;;4815419;29;20404;-82
2022/01/06 05:57:11;;;;;;;8.63;2.63;;;5.40;88.90;;;;;;4800592;29;20039;-82
2022/01/06 05:59:37;;;;;;;13.52;2.90;;;5.30;89.30;;;;;;4802274;29;20058;-81
2022/01/06 06:02:05;;;;;;;5.65;2.60;;;5.40;89.40;;;;;;4797274;29;20280;-82
2022/01/06 06:04:31;;;;;;;12.55;2.75;;;5.40;89.50;;;;;;4815336;29;20333;-82
2022/01/06 06:06:56;;;;;;;9.32;2.80;;;5.40;89.50;;;;;;4815256;29;20039;-83
2022/01/06 06:09:22;;;;;;;6.03;2.75;;;5.40;89.50;;;;;;4832469;29;20031;-82
2022/01/06 06:11:48;;;;;;;7.68;3.05;;;5.30;89.60;;;;;;4797265;29;20068;-83
2022/01/06 06:14:14;;;;;;;6.95;2.38;;;5.30;89.70;;;;;;4802730;29;20031;-81
2022/01/06 06:16:40;;;;;;;7.50;3.17;;;5.30;89.90;;;;;;4817736;29;20079;-80
2022/01/06 06:19:05;;;;;;;8.38;3.50;;;5.30;89.90;;;;;;4781964;30;20042;-81
2022/01/06 06:21:31;;;;;;;8.80;3.17;;;5.30;89.90;;;;;;4796852;29;20104;-82
2022/01/06 06:23:57;;;;;;;11.07;3.10;;;5.30;90.00;;;;;;4784796;30;20107;-81
2022/01/06 06:26:22;;;;;;;5.40;2.63;;;5.30;89.90;;;;;;4784699;30;20039;-81
2022/01/06 06:28:48;;;;;;;12.05;3.55;;;5.20;89.40;;;;;;4801283;29;20034;-81
2022/01/06 06:31:14;;;;;;;11.60;3.28;;;5.20;89.40;;;;;;4812379;29;20047;-81
2022/01/06 06:33:40;;;;;;;7.57;2.45;;;5.30;89.60;;;;;;4790583;30;20039;-82
2022/01/06 06:36:06;;;;;;;9.52;3.08;;;5.30;89.50;;;;;;4794663;29;20045;-82
2022/01/06 06:38:31;;;;;;;9.15;3.67;;;5.30;89.10;;;;;;4790637;29;20039;-82
2022/01/06 06:40:57;;;;;;;11.30;3.92;;;5.30;88.80;;;;;;4800074;29;20051;-82
2022/01/06 06:43:23;;;;;;;11.70;2.95;;;5.40;88.80;;;;;;4802087;29;20058;-81
2022/01/06 06:45:49;;;;;;;6.95;3.25;;;5.40;88.30;;;;;;4801330;29;20106;-81
2022/01/06 06:48:15;;;;;;;9.38;3.55;;;5.30;88.00;;;;;;4786308;29;20031;-81
2022/01/06 06:50:41;;;;;;;7.82;2.83;;;5.40;87.80;;;;;;4795217;29;20045;-82
2022/01/06 06:53:07;;;;;;;9.55;2.90;;;5.40;88.00;;;;;;4816626;29;20046;-82
2022/01/06 06:55:34;;;;;;;7.97;2.55;;;5.40;87.80;;;;;;4789764;29;20039;-81
2022/01/06 06:58:01;;;;;;;6.13;1.90;;;5.40;87.60;;;;;;4792443;29;20061;-80
2022/01/06 07:00:27;;;;;;;7.85;2.85;;;5.40;87.70;;;;;;4816632;29;20031;-81
2022/01/06 07:02:53;;;;;;;10.10;4.53;;;5.40;87.90;;;;;;4807023;29;20058;-81
2022/01/06 07:05:18;;;;;;;11.30;3.40;;;5.40;87.70;;;;;;4787167;29;20242;-84
2022/01/06 07:07:44;;;;;;;8.13;3.33;;;5.40;87.80;;;;;;4785613;29;20061;-81
2022/01/06 07:10:11;;;;;;;15.38;3.35;;;5.40;87.80;;;;;;4809837;29;20033;-82
2022/01/06 07:12:45;;;;;;;13.90;2.73;;;5.40;87.70;;;;;;4800936;29;20083;-82
2022/01/06 07:15:13;;;;;;;14.25;3.30;;;5.50;87.90;;;;;;4830834;29;20279;-82
2022/01/06 07:17:39;;;;;;;7.60;2.83;;;5.50;87.70;;;;;;4770437;29;20054;-82
2022/01/06 07:20:06;;;;;;;12.20;3.15;;;5.50;88.00;;;;;;4825661;29;20043;-82
2022/01/06 07:22:31;;;;;;;7.53;2.28;;;5.50;87.40;;;;;;4811992;29;20300;-82
2022/01/06 07:24:57;;;;;;;8.70;3.75;;;5.60;87.30;;;;;;4814004;29;20071;-82
2022/01/06 07:27:23;;;;;;;6.55;2.63;;;5.60;87.40;;;;;;4800252;29;20030;-83
2022/01/06 07:29:49;;;;;;;13.50;3.38;;;5.60;87.40;;;;;;4813398;29;20232;-82
2022/01/06 07:32:15;;;;;;;11.82;3.45;;;5.60;87.20;;;;;;4824960;29;20041;-82
2022/01/06 07:34:41;;;;;;;7.20;2.50;;;5.60;87.40;;;;;;4809393;29;20043;-82
2022/01/06 07:37:07;;;;;;;12.00;3.88;;;5.60;88.00;;;;;;4794855;29;20066;-83
2022/01/06 07:39:32;;;;;;;11.63;2.65;;;5.60;87.40;;;;;;4808409;29;20274;-83
2022/01/06 07:41:58;;;;;;;9.13;3.20;;;5.70;87.40;;;;;;4795884;29;20039;-83
2022/01/06 07:44:24;;;;;;;18.58;4.07;;;5.70;87.30;;;;;;4787942;29;20116;-83
2022/01/06 07:46:50;;;;;;;15.40;2.90;;;5.70;87.50;;;;;;4792647;29;20054;-82
2022/01/06 07:49:16;;;;;;;9.60;3.33;;;5.70;87.30;;;;;;4799646;29;20042;-82
2022/01/06 07:51:42;;;;;;;7.38;2.58;;;5.60;87.40;;;;;;4782967;29;20131;-82
2022/01/06 07:54:07;;;;;;;7.57;2.58;;;5.70;87.80;;;;;;4793498;29;20322;-82
2022/01/06 07:56:36;;;;;;;6.15;2.40;;;5.70;87.50;;;;;;4811888;29;20265;-82
2022/01/06 07:59:02;;;;;;;10.60;3.42;;;5.70;87.30;;;;;;4812713;29;20031;-82
2022/01/06 08:01:27;;;;;;;6.95;2.78;;;5.80;87.20;;;;;;4813118;29;20075;-81
2022/01/06 08:03:53;;;;;;;8.10;2.75;;;5.80;86.40;;;;;;4797085;29;20536;-82
2022/01/06 08:06:20;;;;;;;7.30;2.20;;;5.80;86.50;;;;;;4795454;29;20031;-82
2022/01/06 08:08:46;;;;;;;9.30;3.53;;;5.90;86.60;;;;;;4815163;29;20046;-81
2022/01/06 08:11:13;;;;;;;11.77;2.90;;;6.00;86.10;;;;;;4799687;29;20061;-81
2022/01/06 08:13:41;;;;;;;7.80;2.35;;;6.00;85.30;;;;;;4815074;29;20038;-82
2022/01/06 08:16:07;;;;;;;8.52;2.88;;;6.00;85.00;;;;;;4792915;29;20038;-83
2022/01/06 08:18:33;;;;;;;7.60;2.55;;;5.90;85.30;;;;;;4823063;29;20035;-82
2022/01/06 08:20:59;;;;;;;8.23;2.63;;;6.00;85.40;;;;;;4806760;29;20050;-83
2022/01/06 08:23:25;;;;;;;7.30;2.90;;;6.00;85.10;;;;;;4805998;29;20035;-80
2022/01/06 08:25:55;;;;;;;5.30;2.65;;;6.10;84.40;;;;;;4815228;29;20057;-81
2022/01/06 08:28:21;;;;;;;8.95;2.63;;;6.10;84.50;;;;;;4831488;29;20065;-82
2022/01/06 08:30:47;;;;;;;7.40;2.70;;;6.20;83.90;;;;;;4816053;29;20238;-82
2022/01/06 08:33:15;;;;;;;5.17;2.60;;;6.30;83.20;;;;;;4798353;29;20319;-82
2022/01/06 08:35:44;;;;;;;12.77;3.03;;;6.30;82.90;;;;;;4780153;29;20043;-81
2022/01/06 08:38:10;;;;;;;9.35;2.92;;;6.30;83.40;;;;;;4807052;29;20055;-82
2022/01/06 08:40:38;;;;;;;6.45;2.38;;;6.20;83.60;;;;;;4788220;29;20062;-81
2022/01/06 08:43:04;;;;;;;6.35;2.22;;;6.30;83.80;;;;;;4782559;29;20039;-81
2022/01/06 08:45:32;;;;;;;8.95;2.67;;;6.30;83.10;;;;;;4811079;29;20031;-81
2022/01/06 08:47:58;;;;;;;6.60;2.35;;;6.30;83.60;;;;;;4793059;29;20043;-82
2022/01/06 08:50:25;;;;;;;7.63;2.90;;;6.30;83.60;;;;;;4815094;29;20061;-81
2022/01/06 08:52:51;;;;;;;10.07;2.40;;;6.30;83.70;;;;;;4801007;29;20066;-82
2022/01/06 08:55:17;;;;;;;8.27;2.20;;;6.30;83.80;;;;;;4800390;29;20272;-82
2022/01/06 08:57:42;;;;;;;7.95;2.00;;;6.40;83.30;;;;;;4808752;29;20058;-82
2022/01/06 09:00:11;;;;;;;7.97;2.60;;;6.40;83.10;;;;;;4792427;29;20046;-83
2022/01/06 09:02:38;;;;;;;6.63;2.47;;;6.40;83.20;;;;;;4781064;29;20043;-82
2022/01/06 09:05:05;;;;;;;9.48;2.72;;;6.40;82.90;;;;;;4793356;29;20107;-83
2022/01/06 09:07:33;;;;;;;10.50;2.70;;;6.50;83.10;;;;;;4802954;29;20046;-82
2022/01/06 09:09:59;;;;;;;12.73;2.33;;;6.50;82.90;;;;;;4806050;29;20160;-82
2022/01/06 09:12:25;;;;;;;10.75;2.47;;;6.50;82.40;;;;;;4802113;29;20042;-81
2022/01/06 09:14:50;;;;;;;5.97;1.80;;;6.50;82.80;;;;;;4802000;29;20585;-82
2022/01/06 09:17:16;;;;;;;5.82;1.98;;;6.40;82.50;;;;;;4801348;29;20043;-83
2022/01/06 09:19:42;;;;;;;7.88;2.05;;;6.40;83.00;;;;;;4814083;29;20023;-82
2022/01/06 09:22:08;;;;;;;11.43;2.65;;;6.40;82.90;;;;;;4802298;29;20208;-83
2022/01/06 09:24:34;;;;;;;9.43;2.78;;;6.40;83.20;;;;;;4801753;29;20058;-82
2022/01/06 09:27:00;;;;;;;4.53;2.58;;;6.50;83.20;;;;;;4796939;29;20122;-82
2022/01/06 09:29:26;;;;;;;6.82;2.67;;;6.50;82.70;;;;;;4798476;29;20096;-82
2022/01/06 09:31:52;;;;;;;9.48;2.95;;;6.50;82.90;;;;;;4792660;29;20063;-82
2022/01/06 09:34:18;;;;;;;5.40;2.40;;;6.50;83.60;;;;;;4797193;29;20063;-82
2022/01/06 09:36:44;;;;;;;7.85;2.75;;;6.50;83.40;;;;;;4779483;29;20043;-82
2022/01/06 09:39:12;;;;;;;9.75;3.00;;;6.60;83.70;;;;;;4805344;29;20079;-82
2022/01/06 09:41:38;;;;;;;6.10;2.15;;;6.70;83.00;;;;;;4811482;29;20027;-82
2022/01/06 09:44:05;;;;;;;7.22;2.53;;;6.70;82.50;;;;;;4798210;29;20176;-82
2022/01/06 09:46:31;;;;;;;;;;;6.70;82.60;;;;;;4809077;29;20117;-82
2022/01/06 09:48:59;;;;;;;7.80;2.83;;;6.80;83.00;;;;;;4795368;29;19913;-82
2022/01/06 09:51:30;;;;;;;6.90;2.75;;;6.70;83.10;;;;;;4823357;29;20080;-82
2022/01/06 09:53:58;;;;;;;8.95;2.70;;;6.80;83.20;;;;;;4797204;29;20039;-82
2022/01/06 09:56:27;;;;;;;6.75;2.95;;;6.80;83.60;;;;;;4822061;29;20092;-82
2022/01/06 09:58:53;;;;;;;8.18;2.55;;;6.90;83.40;;;;;;4804709;29;20040;-83
2022/01/06 10:01:20;;;;;;;9.77;3.30;;;7.00;83.20;;;;;;4787013;30;20089;-82
2022/01/06 10:03:48;;;;;;;10.73;3.27;;;7.00;82.70;;;;;;4787139;29;20331;-82
2022/01/06 10:06:25;;;;;;;6.50;2.63;;;7.10;82.20;;;;;;4798724;29;20042;-82
2022/01/06 10:09:02;;;;;;;;;;;7.10;82.40;;;;;;4824857;29;20062;-82
2022/01/06 10:11:30;;;;;;;7.82;2.67;;;7.00;82.70;;;;;;4781356;30;19914;-82
2022/01/06 10:14:04;;;;;;;4.32;2.25;;;7.00;83.70;;;;;;4810521;29;20039;-82
2022/01/06 10:16:30;;;;;;;4.82;2.25;;;7.00;83.20;;;;;;4816451;29;20061;-82
2022/01/06 10:19:07;;;;;;;5.55;1.92;;;7.00;83.00;;;;;;4810659;29;20246;-82
2022/01/06 10:21:48;;;;;;;5.90;2.60;;;7.00;82.40;;;;;;4816283;29;20042;-82
2022/01/06 10:24:16;;;;;;;6.05;2.15;;;7.00;82.30;;;;;;4816495;29;20038;-81
2022/01/06 10:26:55;;;;;;;6.10;1.83;;;7.10;82.10;;;;;;4791243;29;20039;-81
2022/01/06 10:29:24;;;;;;;6.95;2.33;;;7.20;82.20;;;;;;4831921;29;20124;-81
2022/01/06 10:31:50;;;;;;;5.43;1.85;;;7.30;81.40;;;;;;4831161;29;20023;-82
2022/01/06 10:34:15;;;;;;;3.55;1.67;;;7.20;79.80;;;;;;4797107;30;20295;-82
2022/01/06 10:36:42;;;;;;;4.00;1.55;;;7.20;79.00;;;;;;4784125;30;20058;-82
2022/01/06 10:39:08;;;;;;;8.65;1.88;;;7.20;78.70;;;;;;4800378;29;20039;-81
2022/01/06 10:41:38;;;;;;;4.35;1.95;;;7.20;78.10;;;;;;4816353;29;20113;-82
2022/01/06 10:44:06;;;;;;;5.75;2.08;;;7.20;78.20;;;;;;4800871;29;20065;-82
2022/01/06 10:46:34;;;;;;;3.17;1.63;;;7.30;78.70;;;;;;4829278;29;20126;-82
2022/01/06 10:49:03;;;;;;;7.25;1.90;;;7.30;78.70;;;;;;4825565;29;20035;-82
2022/01/06 10:51:49;;;;;;;5.32;1.63;;;7.30;77.90;;;;;;4831183;29;20064;-82
2022/01/06 10:54:23;;;;;;;1.90;1.30;;;7.50;77.50;;;;;;4825897;29;20057;-82
2022/01/06 10:57:17;;;;;;;4.80;1.75;;;7.60;76.50;;;;;;4818054;29;20341;-82
2022/01/06 10:59:44;;;;;;;7.57;1.98;;;7.70;77.20;;;;;;4794870;30;20051;-82
2022/01/06 11:02:23;;;;;;;;;;;7.70;76.90;;;;;;4797736;30;20286;-82
2022/01/06 11:04:49;;;;;;;3.83;2.25;;;7.80;77.00;;;;;;4792316;30;19909;-82
2022/01/06 11:07:15;;;;;;;4.63;2.15;;;7.90;77.30;;;;;;4783072;30;20043;-82
2022/01/06 11:09:45;;;;;;;3.97;1.92;;;8.10;77.90;;;;;;4783357;30;20035;-82
2022/01/06 11:12:28;;;;;;;4.90;1.77;;;8.10;77.70;;;;;;4774693;30;20066;-81
2022/01/06 11:14:55;;;;;;;2.88;1.50;;;8.20;76.80;;;;;;4755435;30;20414;-81
2022/01/06 11:17:23;;;;;;;4.20;1.70;;;8.30;75.80;;;;;;4791497;30;20123;-81
2022/01/06 11:19:49;;;;;;;5.95;2.00;;;8.20;74.90;;;;;;4793496;30;20043;-81
2022/01/06 11:22:22;;;;;;;3.50;1.60;;;8.20;74.70;;;;;;4764390;30;20122;-82
2022/01/06 11:24:55;;;;;;;3.55;1.60;;;8.20;74.70;;;;;;4776002;30;20338;-82
2022/01/06 11:27:35;;;;;;;5.70;1.90;;;8.30;75.70;;;;;;4775433;30;20267;-81
2022/01/06 11:30:15;;;;;;;4.15;1.80;;;8.40;75.00;;;;;;4780756;30;20043;-82
2022/01/06 11:32:42;;;;;;;4.90;2.17;;;8.50;74.80;;;;;;4765718;30;20411;-80
2022/01/06 11:35:16;;;;;;;5.95;2.28;;;8.50;74.00;;;;;;4779709;30;20039;-82
2022/01/06 11:37:51;;;;;;;5.07;2.00;;;8.50;74.00;;;;;;4798584;29;20031;-82
2022/01/06 11:40:30;;;;;;;3.97;1.98;;;8.40;73.50;;;;;;4794854;29;20069;-82
2022/01/06 11:42:57;;;;;;;5.32;2.08;;;8.30;74.20;;;;;;4822662;29;20070;-83
2022/01/06 11:45:23;;;;;;;7.22;2.35;;;8.40;74.80;;;;;;4798725;29;20143;-82
2022/01/06 11:48:13;;;;;;;2.22;1.15;;;8.40;74.00;;;;;;4823280;29;20140;-82
2022/01/06 11:50:44;;;;;;;4.05;2.25;;;8.30;74.60;;;;;;4827091;29;20043;-82
2022/01/06 11:53:10;;;;;;;3.85;1.95;;;8.20;75.30;;;;;;4813461;29;20099;-82
2022/01/06 11:55:41;;;;;;;5.95;1.80;;;8.20;75.50;;;;;;4814409;29;20039;-82
2022/01/06 11:58:18;;;;;;;4.35;2.00;;;8.20;75.50;;;;;;4813977;29;20105;-82
2022/01/06 12:00:59;;;;;;;4.78;2.10;;;8.20;75.60;;;;;;4791101;29;20027;-82
2022/01/06 12:03:45;;;;;;;6.05;2.45;;;8.10;75.90;;;;;;4797626;29;20065;-82
2022/01/06 12:06:28;;;;;;;5.93;2.22;;;8.10;76.50;;;;;;4802076;29;20041;-82
2022/01/06 12:08:55;;;;;;;7.50;2.22;;;7.90;76.70;;;;;;4808197;29;20077;-82
2022/01/06 12:11:33;;;;;;;7.47;2.60;;;8.00;77.70;;;;;;4812291;29;20057;-82
2022/01/06 12:14:00;;;;;;;8.63;2.17;;;7.80;77.80;;;;;;4814347;29;20377;-82
2022/01/06 12:16:36;;;;;;;8.00;2.15;;;7.70;79.00;;;;;;4825183;29;20030;-82
2022/01/06 12:19:25;;;;;;;4.40;2.20;;;7.70;79.80;;;;;;4808549;29;20055;-83
2022/01/06 12:21:51;;;;;;;7.10;2.35;;;7.90;80.10;;;;;;4792785;29;20039;-82
2022/01/06 12:24:17;;;;;;;4.25;1.85;;;8.00;79.00;;;;;;4822058;29;20227;-82
2022/01/06 12:26:45;;;;;;;11.30;3.22;;;8.10;77.80;;;;;;4796220;29;20030;-82
2022/01/06 12:29:20;;;;;;;6.55;2.35;;;8.00;77.80;;;;;;4827265;29;20033;-81
2022/01/06 12:31:48;;;;;;;4.57;2.50;;;8.00;78.40;;;;;;4810057;29;20030;-82
2022/01/06 12:34:15;;;;;;;5.57;2.70;;;7.90;77.80;;;;;;4809942;29;20043;-83
2022/01/06 12:36:46;;;;;;;6.63;2.35;;;7.90;78.70;;;;;;4826047;29;20031;-82
2022/01/06 12:39:20;;;;;;;9.02;2.45;;;7.90;78.40;;;;;;4797483;29;20055;-82
2022/01/06 12:41:47;;;;;;;3.70;1.85;;;7.80;78.10;;;;;;4792886;29;20108;-82
2022/01/06 12:44:23;;;;;;;4.45;1.85;;;7.90;78.20;;;;;;4792248;29;20075;-82
2022/01/06 12:46:50;;;;;;;8.07;1.38;;;7.90;76.90;;;;;;4803224;29;20071;-82
2022/01/06 12:49:19;;;;;;;2.85;1.23;;;7.80;76.50;;;;;;4778957;30;20031;-81
2022/01/06 12:51:46;;;;;;;4.10;1.10;;;7.80;76.50;;;;;;4804558;29;20035;-81
2022/01/06 12:54:18;;;;;;;5.63;1.45;;;7.70;75.80;;;;;;4808471;29;20229;-82
2022/01/06 12:57:06;;;;;;;2.85;1.55;;;7.70;75.50;;;;;;4798761;29;20368;-82
2022/01/06 12:59:37;;;;;;;11.00;1.52;;;7.80;75.80;;;;;;4809221;29;20139;-81
2022/01/06 13:02:14;;;;;;;5.65;1.60;;;7.80;74.60;;;;;;4796773;29;20039;-82
2022/01/06 13:04:44;;;;;;;2.53;0.98;;;7.90;75.40;;;;;;4781946;30;20041;-80
2022/01/06 13:07:12;;;;;;;2.42;1.40;;;7.90;75.10;;;;;;4785490;29;20031;-81
2022/01/06 13:09:40;;;;;;;5.43;1.27;;;7.90;74.60;;;;;;4812334;29;20018;-81
2022/01/06 13:12:19;;;;;;;8.45;4.55;;;7.80;75.00;;;;;;4813959;29;20099;-81
2022/01/06 13:14:52;;;;;;;4.30;1.08;;;7.90;75.50;;;;;;4822777;29;20287;-80
2022/01/06 13:17:29;;;;;;;4.63;1.50;;;7.90;75.80;;;;;;4811554;29;20027;-81
2022/01/06 13:20:03;;;;;;;3.25;1.05;;;8.00;76.00;;;;;;4809654;29;20068;-81
2022/01/06 13:25:21;;;;;;;17.67;2.15;;;8.00;76.20;;;;;;4810958;29;20031;-81
2022/01/06 13:27:59;;;;;;;5.53;1.40;;;7.90;75.70;;;;;;4814073;29;20046;-81
2022/01/06 13:30:40;;;;;;;3.10;1.48;;;7.80;76.10;;;;;;4810232;29;20030;-81
2022/01/06 13:33:08;;;;;;;3.72;1.50;;;7.70;76.00;;;;;;4780342;29;20096;-81
2022/01/06 13:35:55;;;;;;;5.53;1.48;;;7.60;76.90;;;;;;4798454;29;20046;-81
2022/01/06 13:38:24;;;;;;;3.55;1.90;;;7.50;76.70;;;;;;4798953;29;20043;-82
2022/01/06 13:40:52;;;;;;;5.75;1.50;;;7.50;76.80;;;;;;4797032;29;20023;-82
2022/01/06 13:43:23;;;;;;;2.53;1.42;;;7.50;77.00;;;;;;4807661;29;20094;-82
2022/01/06 13:45:51;;;;;;;4.07;1.85;;;7.50;75.70;;;;;;4797359;29;20078;-82
2022/01/06 13:51:05;;;;;;;4.82;1.52;;;7.50;75.90;;;;;;4829137;29;20023;-81
2022/01/06 13:53:31;;;;;;;2.65;1.55;;;7.40;74.90;;;;;;4799680;29;20099;-82
2022/01/06 13:56:16;;;;;;;7.00;1.60;;;7.30;74.20;;;;;;4797630;29;20037;-82
2022/01/06 13:58:46;;;;;;;4.10;1.70;;;7.20;71.50;;;;;;4798187;29;20031;-83
2022/01/06 14:01:15;;;;;;;4.18;1.60;;;7.20;69.60;;;;;;4813713;29;20043;-82
2022/01/06 14:03:41;;;;;;;4.88;1.40;;;7.10;67.40;;;;;;4810442;29;20045;-81
2022/01/06 14:06:09;;;;;;;2.70;1.40;;;7.10;67.60;;;;;;4816937;29;20031;-82
2022/01/06 14:08:39;;;;;;;1.65;0.95;;;7.10;66.60;;;;;;4795110;29;20035;-82
2022/01/06 14:11:09;;;;;;;2.28;0.90;;;7.00;65.70;;;;;;4823944;29;20327;-82
2022/01/06 14:13:36;;;;;;;1.88;1.02;;;6.90;65.70;;;;;;4829875;29;20140;-81
2022/01/06 14:16:02;;;;;;;3.97;1.55;;;6.90;66.00;;;;;;4799770;29;20054;-81
2022/01/06 14:18:28;;;;;;;2.72;1.25;;;6.90;66.60;;;;;;4805406;29;20027;-81
2022/01/06 14:20:55;;;;;;;1.85;1.15;;;6.80;66.50;;;;;;4799333;29;20091;-81
2022/01/06 14:23:21;;;;;;;2.55;1.25;;;6.80;66.70;;;;;;4795286;29;20118;-81
2022/01/06 14:25:47;;;;;;;1.70;0.88;;;6.70;66.70;;;;;;4812028;29;20031;-82
2022/01/06 14:28:13;;;;;;;3.30;1.83;;;6.70;67.10;;;;;;4797182;29;20066;-81
2022/01/06 14:30:40;;;;;;;3.50;1.25;;;6.60;66.70;;;;;;4808601;29;20384;-82
2022/01/06 14:33:06;;;;;;;8.77;2.58;;;6.60;66.50;;;;;;4828939;29;20051;-81
2022/01/06 14:35:33;;;;;;;6.10;1.70;;;6.50;66.30;;;;;;4786380;29;20261;-81
2022/01/06 14:37:59;;;;;;;1.88;0.95;;;6.40;66.10;;;;;;4814293;29;20292;-82
2022/01/06 14:40:25;;;;;;;3.15;1.08;;;6.40;66.00;;;;;;4805366;29;20127;-82
2022/01/06 14:42:52;;;;;;;2.30;1.20;;;6.30;63.80;;;;;;4794770;29;20102;-82
2022/01/06 14:45:17;;;;;;;1.70;0.88;;;6.20;64.90;;;;;;4805894;29;20472;-82
2022/01/06 14:47:43;;;;;;;2.50;1.13;;;6.20;64.50;;;;;;4801994;29;20063;-82
2022/01/06 14:50:13;;;;;;;2.90;1.05;;;6.20;64.00;;;;;;4804607;29;20035;-82
2022/01/06 14:52:41;;;;;;;2.95;1.42;;;6.20;65.30;;;;;;4793602;29;20058;-82
2022/01/06 14:55:07;;;;;;;1.40;1.08;;;6.10;63.80;;;;;;4800977;29;20043;-82
2022/01/06 14:57:34;;;;;;;3.92;1.85;;;6.10;64.20;;;;;;4797165;29;20058;-83
2022/01/06 14:59:59;;;;;;;3.20;1.23;;;6.00;65.00;;;;;;4798015;29;20045;-82
2022/01/06 15:02:25;;;;;;;3.00;1.23;;;5.90;63.50;;;;;;4829883;29;20035;-82
2022/01/06 15:04:51;;;;;;;3.95;1.02;;;5.90;64.20;;;;;;4816285;29;20113;-82
2022/01/06 15:07:17;;;;;;;2.38;1.60;;;5.90;65.00;;;;;;4799836;29;20034;-82
2022/01/06 15:09:43;;;;;;;2.75;1.35;;;5.80;64.70;;;;;;4798165;29;20027;-83
2022/01/06 15:12:09;;;;;;;2.40;1.30;;;5.70;64.40;;;;;;4813658;29;20039;-82
2022/01/06 15:14:35;;;;;;;3.42;1.55;;;5.70;64.60;;;;;;4827222;29;20134;-82
2022/01/06 15:17:01;;;;;;;3.95;1.90;;;5.70;64.50;;;;;;4801216;29;20041;-83
2022/01/06 15:19:30;;;;;;;10.77;4.53;;;5.60;62.10;;;;;;4801634;29;20034;-83
2022/01/06 15:21:56;;;;;;;17.35;5.43;;;5.50;62.30;;;;;;4801979;29;20050;-83
2022/01/06 15:24:22;;;;;;;8.25;3.05;;;5.50;63.00;;;;;;4802126;29;20035;-83
2022/01/06 15:26:48;;;;;;;3.88;2.13;;;5.40;61.10;;;;;;4817037;29;20031;-84
2022/01/06 15:29:14;;;;;;;4.17;2.03;;;5.30;62.30;;;;;;4802514;29;20064;-83
2022/01/06 15:31:40;;;;;;;4.22;2.83;;;5.40;62.80;;;;;;4816287;29;20284;-83
2022/01/06 15:34:06;;;;;;;5.82;3.45;;;5.30;62.30;;;;;;4793187;29;20067;-84
2022/01/06 15:36:32;;;;;;;4.10;2.00;;;5.20;62.40;;;;;;4801945;29;20343;-84
2022/01/06 15:38:59;;;;;;;3.47;2.30;;;5.20;62.00;;;;;;4779941;29;20054;-84
2022/01/06 15:41:26;;;;;;;5.50;2.10;;;5.20;61.70;;;;;;4816292;29;20035;-84
2022/01/06 15:43:55;;;;;;;5.35;2.47;;;5.10;61.60;;;;;;4827635;29;20033;-84
2022/01/06 15:46:23;;;;;;;4.35;1.95;;;5.10;61.60;;;;;;4827412;29;20043;-85
2022/01/06 15:48:49;;;;;;;3.65;1.73;;;5.10;61.20;;;;;;4837701;29;20069;-84
2022/01/06 15:51:17;;;;;;;4.25;1.75;;;5.10;61.80;;;;;;4811969;29;20030;-84
2022/01/06 15:53:43;;;;;;;7.90;3.53;;;5.00;60.50;;;;;;4775072;29;20050;-83
2022/01/06 15:56:08;;;;;;;8.02;3.83;;;5.00;60.80;;;;;;4803308;29;20049;-84
2022/01/06 15:58:34;;;;;;;13.82;6.65;;;4.90;60.80;;;;;;4805067;29;20031;-84
2022/01/06 16:06:22;;;;;;;28.83;13.15;;;4.90;60.50;;;;;;4812212;29;20333;-84
2022/01/06 16:08:51;;;;;;;8.65;4.18;;;4.80;60.80;;;;;;4796855;29;20038;-84
2022/01/06 16:11:17;;;;;;;4.95;2.13;;;4.80;60.70;;;;;;4799329;29;20041;-83
2022/01/06 16:13:43;;;;;;;5.20;2.25;;;4.70;60.50;;;;;;4809850;29;20350;-84
2022/01/06 16:16:09;;;;;;;3.60;1.70;;;4.70;60.30;;;;;;4814260;29;20059;-83
2022/01/06 16:18:35;;;;;;;4.38;1.83;;;4.70;60.60;;;;;;4794614;29;20043;-83
2022/01/06 16:21:01;;;;;;;3.90;1.73;;;4.70;61.00;;;;;;4787912;30;20051;-83
2022/01/06 16:23:27;;;;;;;3.40;1.45;;;4.70;59.90;;;;;;4804154;29;20039;-83
2022/01/06 16:25:59;;;;;;;2.60;1.40;;;4.60;60.00;;;;;;4813200;29;20042;-83
2022/01/06 16:28:25;;;;;;;5.68;1.73;;;4.70;60.40;;;;;;4812469;29;20035;-83
2022/01/06 16:30:57;;;;;;;6.95;1.50;;;4.60;59.20;;;;;;4825469;29;20037;-83
2022/01/06 16:33:24;;;;;;;5.10;1.77;;;4.60;59.50;;;;;;4808745;29;20039;-82
2022/01/06 16:35:52;;;;;;;5.60;2.00;;;4.60;59.90;;;;;;4795941;29;20022;-84
2022/01/06 16:38:18;;;;;;;6.43;2.30;;;4.60;60.20;;;;;;4809865;29;20102;-83
2022/01/06 16:40:48;;;;;;;4.00;1.70;;;4.60;60.10;;;;;;4821696;29;20031;-82
2022/01/06 16:43:14;;;;;;;5.82;1.60;;;4.60;59.90;;;;;;4769753;29;20042;-82
2022/01/06 16:45:41;;;;;;;5.72;1.80;;;4.60;59.60;;;;;;4794057;29;20331;-82
2022/01/06 16:48:08;;;;;;;3.63;2.08;;;4.50;59.60;;;;;;4810062;29;20030;-82
2022/01/06 16:50:36;;;;;;;4.75;1.75;;;4.50;59.00;;;;;;4810228;29;20328;-82
2022/01/06 16:53:02;;;;;;;;;;;4.50;59.90;;;;;;4812519;29;20326;-82
2022/01/06 16:55:28;;;;;;;7.63;3.65;;;4.40;60.30;;;;;;4802984;29;19920;-82
2022/01/06 16:57:55;;;;;;;38.00;11.30;;;4.40;60.00;;;;;;4796707;29;20055;-82